Katherine Air Field, Australia

1:02 AM ACST on December 10, 2016 (GMT +0930)
INTKATHE2 | | Change Station

Elev 364 ft 14.47 °S, 132.26 °E | Updated 15 seconds ago

Clear
Clear
88.7 °F
Feels Like 97 °F
N
3.1
Wind Variable Wind from NW
Gusts 4.5 mph

Today
High -- | Low -- °F
--% Chance of Precip.
Yesterday
High -- | Low -- °F
Precip. -- in
Pressure 29.77 in
Visibility 6.2 miles
Clouds
Heat Index 97 °F
Dew Point 73 °F
Humidity 60%
Rainfall 0.00 in
Snow Depth Not available.
6:04 AM 7:02 PM
Waxing Gibbous, 75% visible
METAR YPTN 091500Z AUTO 34009KT 9999 // NCD 32/19 Q1008
Pressure 29.77 in
Visibility 6.2 miles
Clouds
Heat Index 97 °F
Dew Point 73 °F
Humidity 60%
Rainfall 0.00 in
Snow Depth Not available.
6:04 AM 7:02 PM
Waxing Gibbous, 75% visible
METAR YPTN 091500Z AUTO 34009KT 9999 // NCD 32/19 Q1008

10-Day Weather Forecast

×

Almanac

Astronomy

Dec. 10, 2016 Rise Set
Actual Time
Civil Twilight
Nautical Twilight
Astronomical Twilight
Moon
Length of Visible Light
Length of Day
Tomorrow will be .
, % of the Moon is Illuminated

Today's Extremes

Country Highs Country Lows

Community

WunderPhotos

Upload Photos

1,956,432 photos uploaded!

WunderBlog® & News

Nearby

Air Quality

  Air Quality AQ Index Pollutant
Not available.

Snow Depth

Station Depth Elevation

Earthquake Activity

City Distance Mag. Time & Date
Minimum magnitude displayed is 2.5.

Coastal Water Temperatures

Place Temperature

Stations

Nearby Weather Stations

Station Location Temp. Windchill Dew Point Humidity Wind Precip. Elev Updated Type